Luna, Arkansas
Current Conditions -  °F | °C
As of 11:06 AM on Sunday 23 Nov 2014 (Local Time) from KGLH Reporting Station
Overcast Overcast  
Wind Chill: 63°   Ceiling: 1200
Heat Index: 63°   Visibility: 8mi
Dew Point: 61°   Wind: 20mph
Humidity: 93%   Direction: 130°SE
Pressure: 29.46"   Gusts: 25mph
Location:  33.3324°N, 91.3183°W
Report Text: KGLH 231706Z AUTO 13017G22KT 8SM SCT006 BKN012 OVC023 17/16 A2946 RMK AO2 PRESFR T01720161 $
Loading
Personal Weather Stations






























Interactive Weather Map New forecast layout! Learn more

10-Day Weather Forecast

Advertisements
Track Severe Weather on mobile